createdAt,value
2024-04-05T00:00:16.191Z,1006.57
2024-04-05T00:01:16.186Z,1006.64
2024-04-05T00:02:16.189Z,1006.60
2024-04-05T00:03:16.202Z,1006.60
2024-04-05T00:04:16.180Z,1006.63
2024-04-05T00:05:16.179Z,1006.63
2024-04-05T00:06:16.176Z,1006.60
2024-04-05T00:07:16.188Z,1006.61
2024-04-05T00:08:16.174Z,1006.65
2024-04-05T00:09:16.174Z,1006.65
2024-04-05T00:10:16.164Z,1006.62
2024-04-05T00:11:16.166Z,1006.63
2024-04-05T00:12:16.166Z,1006.61
2024-04-05T00:13:16.164Z,1006.63
2024-04-05T00:14:16.155Z,1006.55
2024-04-05T00:15:16.174Z,1006.56
2024-04-05T00:16:16.149Z,1006.61
2024-04-05T00:17:16.146Z,1006.58
2024-04-05T00:18:16.143Z,1006.58
2024-04-05T00:19:16.164Z,1006.58
2024-04-05T00:20:16.151Z,1006.59
2024-04-05T00:21:16.147Z,1006.59
2024-04-05T00:22:16.144Z,1006.62
2024-04-05T00:23:16.137Z,1006.61
2024-04-05T00:24:16.134Z,1006.61
2024-04-05T00:25:16.136Z,1006.63
2024-04-05T00:26:16.129Z,1006.67
2024-04-05T00:27:16.194Z,1006.62
2024-04-05T00:28:16.133Z,1006.63
2024-04-05T00:29:16.126Z,1006.61
2024-04-05T00:30:16.141Z,1006.61
2024-04-05T00:31:16.131Z,1006.63
2024-04-05T00:32:16.122Z,1006.60
2024-04-05T00:33:16.117Z,1006.61
2024-04-05T00:34:16.129Z,1006.59
2024-04-05T00:35:16.114Z,1006.56
2024-04-05T00:36:16.131Z,1006.58
2024-04-05T00:37:16.117Z,1006.63
2024-04-05T00:38:16.103Z,1006.64
2024-04-05T00:39:16.099Z,1006.65
2024-04-05T00:40:16.098Z,1006.62
2024-04-05T00:41:16.109Z,1006.63
2024-04-05T00:42:16.093Z,1006.61
2024-04-05T00:43:16.090Z,1006.59
2024-04-05T00:44:16.102Z,1006.63
2024-04-05T00:45:16.089Z,1006.69
2024-04-05T00:46:16.087Z,1006.69
2024-04-05T00:47:16.106Z,1006.68
2024-04-05T00:48:16.084Z,1006.74
2024-04-05T00:49:16.079Z,1006.74
2024-04-05T00:50:16.075Z,1006.72
2024-04-05T00:51:16.081Z,1006.74
2024-04-05T00:52:16.090Z,1006.79
2024-04-05T00:53:16.073Z,1006.79
2024-04-05T00:54:16.073Z,1006.77
2024-04-05T00:55:16.069Z,1006.79
2024-04-05T00:56:16.074Z,1006.79
2024-04-05T00:57:16.066Z,1006.80
2024-04-05T00:58:16.065Z,1006.78
2024-04-05T00:59:16.058Z,1006.77
2024-04-05T01:00:16.058Z,1006.74
2024-04-05T01:01:16.065Z,1006.76
2024-04-05T01:02:16.059Z,1006.75
2024-04-05T01:03:16.062Z,1006.78
2024-04-05T01:04:16.106Z,1006.85
2024-04-05T01:05:16.045Z,1006.87
2024-04-05T01:06:16.041Z,1006.86
2024-04-05T01:07:16.042Z,1006.87
2024-04-05T01:08:16.040Z,1006.84
2024-04-05T01:09:16.033Z,1006.86
2024-04-05T01:10:16.037Z,1006.83
2024-04-05T01:11:16.039Z,1006.88
2024-04-05T01:12:16.028Z,1006.81
2024-04-05T01:13:16.029Z,1006.86
2024-04-05T01:14:16.028Z,1006.85
2024-04-05T01:15:16.026Z,1006.88
2024-04-05T01:16:16.028Z,1006.86
2024-04-05T01:17:16.022Z,1006.87
2024-04-05T01:18:16.020Z,1006.83
2024-04-05T01:19:16.027Z,1006.86
2024-04-05T01:20:16.014Z,1006.80
2024-04-05T01:21:16.006Z,1006.86
2024-04-05T01:22:16.016Z,1006.87
2024-04-05T01:23:16.014Z,1006.87
2024-04-05T01:24:16.012Z,1006.86
2024-04-05T01:25:16.006Z,1006.85
2024-04-05T01:26:16.004Z,1006.90
2024-04-05T01:27:16.009Z,1006.94
2024-04-05T01:28:16.003Z,1006.92
2024-04-05T01:29:15.999Z,1006.91
2024-04-05T01:30:15.990Z,1006.94
2024-04-05T01:31:15.987Z,1006.96
2024-04-05T01:32:15.998Z,1006.96
2024-04-05T01:33:15.987Z,1006.92
2024-04-05T01:34:15.983Z,1006.96
2024-04-05T01:35:15.992Z,1006.93
2024-04-05T01:36:15.982Z,1006.95
2024-04-05T01:37:15.980Z,1006.95
2024-04-05T01:38:15.974Z,1006.94
2024-04-05T01:39:15.975Z,1006.94
2024-04-05T01:40:15.989Z,1006.93
2024-04-05T01:41:15.964Z,1006.92
2024-04-05T01:42:15.966Z,1006.91
2024-04-05T01:43:15.963Z,1006.94
2024-04-05T01:44:15.963Z,1006.91
2024-04-05T01:45:15.975Z,1006.92
2024-04-05T01:46:15.955Z,1006.94
2024-04-05T01:47:15.955Z,1006.92
2024-04-05T01:48:15.953Z,1006.92
2024-04-05T01:49:15.954Z,1006.90
2024-04-05T01:50:15.944Z,1006.92
2024-04-05T01:51:15.960Z,1006.92
2024-04-05T01:52:15.944Z,1006.91
2024-04-05T01:53:15.939Z,1006.93
2024-04-05T01:54:15.936Z,1006.92
2024-04-05T01:55:15.944Z,1006.94
2024-04-05T01:56:15.931Z,1006.95
2024-04-05T01:57:15.953Z,1006.95
2024-04-05T01:58:15.928Z,1006.99
2024-04-05T01:59:15.924Z,1007.02
2024-04-05T02:00:15.934Z,1007.06
2024-04-05T02:01:15.925Z,1007.03
2024-04-05T02:02:15.917Z,1007.04
2024-04-05T02:03:15.920Z,1007.03
2024-04-05T02:04:15.917Z,1007.00
2024-04-05T02:05:15.915Z,1006.99
2024-04-05T02:06:15.924Z,1007.00
2024-04-05T02:07:15.925Z,1007.02
2024-04-05T02:08:15.903Z,1006.99
2024-04-05T02:09:15.908Z,1007.04
2024-04-05T02:10:15.901Z,1007.00
2024-04-05T02:11:15.900Z,1006.98
2024-04-05T02:12:15.904Z,1006.99
2024-04-05T02:13:15.897Z,1007.01
2024-04-05T02:14:15.911Z,1007.06
2024-04-05T02:15:15.890Z,1007.12
2024-04-05T02:16:15.899Z,1007.08
2024-04-05T02:17:15.904Z,1007.07
2024-04-05T02:18:15.888Z,1007.08
2024-04-05T02:19:15.891Z,1007.09
2024-04-05T02:20:15.884Z,1007.14
2024-04-05T02:21:15.895Z,1007.12
2024-04-05T02:22:15.876Z,1007.14
2024-04-05T02:23:15.890Z,1007.10
2024-04-05T02:24:15.873Z,1007.15
2024-04-05T02:25:15.864Z,1007.14
2024-04-05T02:26:15.867Z,1007.14
2024-04-05T02:27:15.862Z,1007.09
2024-04-05T02:28:15.866Z,1007.17
2024-04-05T02:29:15.866Z,1007.16
2024-04-05T02:30:15.860Z,1007.18
2024-04-05T02:31:15.850Z,1007.19
2024-04-05T02:32:15.853Z,1007.18
2024-04-05T02:33:15.862Z,1007.18
2024-04-05T02:34:15.846Z,1007.17
2024-04-05T02:35:15.840Z,1007.19
2024-04-05T02:36:15.841Z,1007.19
2024-04-05T02:37:15.841Z,1007.21
2024-04-05T02:38:15.840Z,1007.22
2024-04-05T02:39:15.909Z,1007.22
2024-04-05T02:40:15.835Z,1007.20
2024-04-05T02:41:15.831Z,1007.22
2024-04-05T02:42:15.831Z,1007.18
2024-04-05T02:43:15.833Z,1007.18
2024-04-05T02:44:15.825Z,1007.22
2024-04-05T02:45:15.827Z,1007.25
2024-04-05T02:46:15.823Z,1007.21
2024-04-05T02:47:15.822Z,1007.22
2024-04-05T02:48:15.814Z,1007.22
2024-04-05T02:49:15.816Z,1007.24
2024-04-05T02:50:15.812Z,1007.22
2024-04-05T02:51:15.815Z,1007.25
2024-04-05T02:52:15.836Z,1007.27
2024-04-05T02:53:15.808Z,1007.23
2024-04-05T02:54:18.964Z,1007.26
2024-04-05T02:55:15.815Z,1007.29
2024-04-05T02:56:15.807Z,1007.31
2024-04-05T02:57:15.799Z,1007.36
2024-04-05T02:58:15.796Z,1007.38
2024-04-05T02:59:15.792Z,1007.34
2024-04-05T03:00:15.791Z,1007.40
2024-04-05T03:01:15.790Z,1007.40
2024-04-05T03:02:15.784Z,1007.40
2024-04-05T03:03:15.785Z,1007.46
2024-04-05T03:04:15.790Z,1007.48
2024-04-05T03:05:15.780Z,1007.44
2024-04-05T03:06:15.774Z,1007.48
2024-04-05T03:07:15.771Z,1007.51
2024-04-05T03:08:15.781Z,1007.46
2024-04-05T03:09:15.767Z,1007.55
2024-04-05T03:10:15.767Z,1007.56
2024-04-05T03:11:15.785Z,1007.47
2024-04-05T03:12:15.763Z,1007.51
2024-04-05T03:13:15.759Z,1007.46
2024-04-05T03:14:15.760Z,1007.47
2024-04-05T03:15:15.759Z,1007.50
2024-04-05T03:16:15.759Z,1007.52
2024-04-05T03:17:15.754Z,1007.51
2024-04-05T03:18:15.758Z,1007.53
2024-04-05T03:19:15.744Z,1007.53
2024-04-05T03:20:15.745Z,1007.50
2024-04-05T03:21:15.744Z,1007.46
2024-04-05T03:22:15.756Z,1007.48
2024-04-05T03:23:15.737Z,1007.47
2024-04-05T03:24:15.757Z,1007.52
2024-04-05T03:25:15.739Z,1007.54
2024-04-05T03:26:15.744Z,1007.52
2024-04-05T03:27:15.748Z,1007.52
2024-04-05T03:28:15.734Z,1007.52
2024-04-05T03:29:15.733Z,1007.54
2024-04-05T03:30:15.725Z,1007.55
2024-04-05T03:31:15.728Z,1007.51
2024-04-05T03:32:15.734Z,1007.54
2024-04-05T03:33:15.717Z,1007.57
2024-04-05T03:34:15.717Z,1007.60
2024-04-05T03:35:15.761Z,1007.61
2024-04-05T03:36:15.725Z,1007.60
2024-04-05T03:37:15.711Z,1007.62
2024-04-05T03:39:14.587Z,1007.63
2024-04-05T03:39:15.712Z,1007.62
2024-04-05T03:40:15.708Z,1007.62
2024-04-05T03:41:15.703Z,1007.64
2024-04-05T03:42:15.699Z,1007.61
2024-04-05T03:43:15.715Z,1007.61
2024-04-05T03:44:15.727Z,1007.61
2024-04-05T03:45:15.701Z,1007.64
2024-04-05T03:46:15.686Z,1007.68
2024-04-05T03:47:15.689Z,1007.66
2024-04-05T03:48:15.690Z,1007.66
2024-04-05T03:49:15.687Z,1007.62
2024-04-05T03:50:15.681Z,1007.67
2024-04-05T03:51:15.683Z,1007.64
2024-04-05T03:52:15.676Z,1007.64
2024-04-05T03:53:15.677Z,1007.65
2024-04-05T03:54:15.671Z,1007.66
2024-04-05T03:55:15.677Z,1007.70
2024-04-05T03:56:15.681Z,1007.72
2024-04-05T03:57:15.662Z,1007.71
2024-04-05T03:58:15.662Z,1007.70
2024-04-05T03:59:15.679Z,1007.74
2024-04-05T04:00:15.663Z,1007.72
2024-04-05T04:01:15.658Z,1007.69
2024-04-05T04:02:15.656Z,1007.65
2024-04-05T04:03:15.653Z,1007.69
2024-04-05T04:04:15.650Z,1007.70
2024-04-05T04:05:15.659Z,1007.68
2024-04-05T04:06:15.648Z,1007.71
2024-04-05T04:07:15.643Z,1007.71
2024-04-05T04:08:15.647Z,1007.76
2024-04-05T04:09:15.643Z,1007.75
2024-04-05T04:10:15.643Z,1007.75
2024-04-05T04:11:15.632Z,1007.76
2024-04-05T04:12:15.639Z,1007.80
2024-04-05T04:13:15.633Z,1007.80
2024-04-05T04:14:15.626Z,1007.81
2024-04-05T04:15:15.637Z,1007.81
2024-04-05T04:16:18.521Z,1007.84
2024-04-05T04:17:15.629Z,1007.83
2024-04-05T04:18:15.622Z,1007.85
2024-04-05T04:19:15.618Z,1007.87
2024-04-05T04:20:15.615Z,1007.92
2024-04-05T04:21:15.622Z,1007.89
2024-04-05T04:22:15.624Z,1007.92
2024-04-05T04:23:15.617Z,1007.91
2024-04-05T04:24:15.623Z,1007.94
2024-04-05T04:25:15.605Z,1007.91
2024-04-05T04:26:15.605Z,1007.90
2024-04-05T04:27:15.614Z,1007.94
2024-04-05T04:28:15.924Z,1007.95
2024-04-05T04:29:15.598Z,1007.95
2024-04-05T04:30:15.592Z,1007.91
2024-04-05T04:31:15.604Z,1007.93
2024-04-05T04:32:15.597Z,1007.98
2024-04-05T04:33:15.584Z,1007.98
2024-04-05T04:34:15.593Z,1007.97
2024-04-05T04:35:15.582Z,1007.96
2024-04-05T04:36:15.596Z,1008.00
2024-04-05T04:37:15.573Z,1008.02
2024-04-05T04:38:15.897Z,1008.05
2024-04-05T04:39:15.575Z,1008.04
2024-04-05T04:40:15.575Z,1008.05
2024-04-05T04:41:15.596Z,1008.09
2024-04-05T04:42:15.571Z,1008.06
2024-04-05T04:43:15.561Z,1008.03
2024-04-05T04:44:15.568Z,1008.06
2024-04-05T04:45:15.560Z,1008.05
2024-04-05T04:46:15.556Z,1008.10
2024-04-05T04:47:15.572Z,1008.07
2024-04-05T04:48:15.547Z,1008.10
2024-04-05T04:49:15.553Z,1008.14
2024-04-05T04:50:15.554Z,1008.12
2024-04-05T04:51:15.541Z,1008.11
2024-04-05T04:52:15.542Z,1008.14
2024-04-05T04:53:15.539Z,1008.17
2024-04-05T04:54:15.542Z,1008.15
2024-04-05T04:55:15.535Z,1008.16
2024-04-05T04:56:15.544Z,1008.16
2024-04-05T04:57:15.526Z,1008.19
2024-04-05T04:58:15.525Z,1008.19
2024-04-05T04:59:15.529Z,1008.24
2024-04-05T05:00:15.528Z,1008.21
2024-04-05T05:01:15.521Z,1008.23
2024-04-05T05:02:15.520Z,1008.29
2024-04-05T05:03:15.531Z,1008.27
2024-04-05T05:04:15.521Z,1008.35
2024-04-05T05:05:15.515Z,1008.32
2024-04-05T05:06:15.512Z,1008.30
2024-04-05T05:07:15.510Z,1008.35
2024-04-05T05:08:15.704Z,1008.34
2024-04-05T05:09:15.510Z,1008.38
2024-04-05T05:10:15.527Z,1008.37
2024-04-05T05:11:15.518Z,1008.38
2024-04-05T05:12:15.518Z,1008.38
2024-04-05T05:13:15.507Z,1008.39
2024-04-05T05:14:15.493Z,1008.36
2024-04-05T05:15:15.492Z,1008.38
2024-04-05T05:16:15.492Z,1008.37
2024-04-05T05:17:15.493Z,1008.36
2024-04-05T05:18:15.486Z,1008.43
2024-04-05T05:19:15.510Z,1008.41
2024-04-05T05:20:15.486Z,1008.40
2024-04-05T05:21:15.479Z,1008.39
2024-04-05T05:22:15.483Z,1008.38
2024-04-05T05:23:15.470Z,1008.41
2024-04-05T05:24:15.487Z,1008.39
2024-04-05T05:25:15.475Z,1008.42
2024-04-05T05:26:15.486Z,1008.43
2024-04-05T05:27:15.462Z,1008.40
2024-04-05T05:28:15.461Z,1008.43
2024-04-05T05:29:15.462Z,1008.39
2024-04-05T05:30:15.455Z,1008.41
2024-04-05T05:31:15.451Z,1008.40
2024-04-05T05:32:15.455Z,1008.45
2024-04-05T05:33:15.462Z,1008.44
2024-04-05T05:34:15.447Z,1008.46
2024-04-05T05:35:15.445Z,1008.47
2024-04-05T05:36:15.444Z,1008.51
2024-04-05T05:37:15.454Z,1008.57
2024-04-05T05:38:15.447Z,1008.55
2024-04-05T05:39:15.440Z,1008.60
2024-04-05T05:40:15.450Z,1008.62
2024-04-05T05:41:15.436Z,1008.66
2024-04-05T05:42:15.434Z,1008.64
2024-04-05T05:43:15.431Z,1008.73
2024-04-05T05:44:15.429Z,1008.73
2024-04-05T05:45:15.430Z,1008.69
2024-04-05T05:46:15.437Z,1008.74
2024-04-05T05:47:15.433Z,1008.74
2024-04-05T05:48:15.417Z,1008.76
2024-04-05T05:49:15.416Z,1008.84
2024-04-05T05:50:15.411Z,1008.81
2024-04-05T05:51:15.433Z,1008.84
2024-04-05T05:52:15.411Z,1008.85
2024-04-05T05:53:15.406Z,1008.78
2024-04-05T05:54:15.399Z,1008.77
2024-04-05T05:55:15.406Z,1008.83
2024-04-05T05:56:15.402Z,1008.76
2024-04-05T05:57:15.394Z,1008.78
2024-04-05T05:58:15.393Z,1008.75
2024-04-05T05:59:15.392Z,1008.85
2024-04-05T06:00:15.391Z,1008.77
2024-04-05T06:01:15.385Z,1008.84
2024-04-05T06:02:15.386Z,1008.78
2024-04-05T06:03:15.386Z,1008.83
2024-04-05T06:04:15.378Z,1008.77
2024-04-05T06:05:15.374Z,1008.83
2024-04-05T06:06:15.374Z,1008.80
2024-04-05T06:07:15.385Z,1008.79
2024-04-05T06:08:15.373Z,1008.77
2024-04-05T06:09:15.373Z,1008.82
2024-04-05T06:10:15.365Z,1008.77
2024-04-05T06:11:15.371Z,1008.82
2024-04-05T06:12:15.360Z,1008.81
2024-04-05T06:13:15.364Z,1008.84
2024-04-05T06:14:15.357Z,1008.80
2024-04-05T06:15:15.356Z,1008.75
2024-04-05T06:16:15.354Z,1008.79
2024-04-05T06:17:15.348Z,1008.82
2024-04-05T06:18:15.356Z,1008.84
2024-04-05T06:19:15.350Z,1008.84
2024-04-05T06:20:15.352Z,1008.87
2024-04-05T06:21:15.347Z,1008.80
2024-04-05T06:22:15.347Z,1008.83
2024-04-05T06:23:15.361Z,1008.89
2024-04-05T06:24:15.342Z,1008.85
2024-04-05T06:25:15.338Z,1008.84
2024-04-05T06:26:15.346Z,1008.94
2024-04-05T06:27:15.330Z,1008.91
2024-04-05T06:28:15.344Z,1008.93
2024-04-05T06:29:15.344Z,1008.94
2024-04-05T06:30:15.330Z,1008.93
2024-04-05T06:31:15.329Z,1008.93
2024-04-05T06:32:15.319Z,1008.97
2024-04-05T06:33:15.323Z,1008.93
2024-04-05T06:34:15.321Z,1008.93
2024-04-05T06:35:15.317Z,1009.02
2024-04-05T06:36:15.324Z,1009.03
2024-04-05T06:37:15.327Z,1009.04
2024-04-05T06:38:15.320Z,1009.10
2024-04-05T06:39:15.328Z,1009.05
2024-04-05T06:40:15.306Z,1009.09
2024-04-05T06:41:15.304Z,1009.07
2024-04-05T06:42:15.307Z,1009.05
2024-04-05T06:43:15.301Z,1009.12
2024-04-05T06:44:15.304Z,1009.09
2024-04-05T06:45:15.295Z,1009.08
2024-04-05T06:46:15.293Z,1009.11
2024-04-05T06:47:15.305Z,1009.18
2024-04-05T06:48:15.288Z,1009.22
2024-04-05T06:49:15.294Z,1009.26
2024-04-05T06:50:15.291Z,1009.22
2024-04-05T06:51:15.291Z,1009.24
2024-04-05T06:52:15.293Z,1009.26
2024-04-05T06:53:15.306Z,1009.26
2024-04-05T06:54:15.285Z,1009.32
2024-04-05T06:55:15.341Z,1009.40
2024-04-05T06:56:15.285Z,1009.49
2024-04-05T06:57:15.286Z,1009.42
2024-04-05T06:58:15.277Z,1009.47
2024-04-05T06:59:15.287Z,1009.30
2024-04-05T07:00:15.290Z,1009.30
2024-04-05T07:01:15.276Z,1009.30
2024-04-05T07:02:15.275Z,1009.41
2024-04-05T07:03:15.269Z,1009.45
2024-04-05T07:04:15.269Z,1009.41
2024-04-05T07:05:15.280Z,1009.38
2024-04-05T07:06:15.276Z,1009.46
2024-04-05T07:07:15.263Z,1009.38
2024-04-05T07:08:15.260Z,1009.25
2024-04-05T07:09:15.262Z,1009.24
2024-04-05T07:10:15.838Z,1009.16
2024-04-05T07:11:15.274Z,1009.12
2024-04-05T07:12:15.263Z,1009.25
2024-04-05T07:13:15.348Z,1009.40
2024-04-05T07:14:15.260Z,1009.39
2024-04-05T07:15:15.305Z,1009.62
2024-04-05T07:16:15.257Z,1009.64
2024-04-05T07:17:15.254Z,1009.51
2024-04-05T07:18:15.253Z,1009.45
2024-04-05T07:19:15.260Z,1009.55
2024-04-05T07:20:15.248Z,1009.66
2024-04-05T07:21:15.254Z,1009.70
2024-04-05T07:22:15.252Z,1009.68
2024-04-05T07:23:15.243Z,1009.86
2024-04-05T07:24:15.254Z,1009.93
2024-04-05T07:25:15.266Z,1009.97
2024-04-05T07:26:15.251Z,1010.07
2024-04-05T07:27:15.260Z,1010.04
2024-04-05T07:28:15.255Z,1010.00
2024-04-05T07:29:15.246Z,1010.02
2024-04-05T07:30:15.255Z,1010.11
2024-04-05T07:31:15.265Z,1010.17
2024-04-05T07:32:15.257Z,1010.21
2024-04-05T07:33:15.251Z,1010.16
2024-04-05T07:34:15.254Z,1009.99
2024-04-05T07:35:15.250Z,1009.92
2024-04-05T07:36:15.261Z,1009.37
2024-04-05T07:37:15.256Z,1010.01
2024-04-05T07:38:15.253Z,1010.05
2024-04-05T07:39:15.258Z,1010.00
2024-04-05T07:40:15.273Z,1009.99
2024-04-05T07:41:15.256Z,1009.98
2024-04-05T07:42:15.256Z,1009.91
2024-04-05T07:43:15.267Z,1009.82
2024-04-05T07:44:15.262Z,1009.80
2024-04-05T07:45:15.262Z,1009.85
2024-04-05T07:46:15.271Z,1009.84
2024-04-05T07:47:15.261Z,1009.79
2024-04-05T07:48:15.264Z,1009.75
2024-04-05T07:49:15.269Z,1009.81
2024-04-05T07:50:15.274Z,1009.82
2024-04-05T07:51:15.278Z,1009.84
2024-04-05T07:52:15.270Z,1009.79
2024-04-05T07:53:15.276Z,1009.74
2024-04-05T07:54:15.273Z,1009.74
2024-04-05T07:55:15.277Z,1009.69
2024-04-05T07:56:15.283Z,1009.71
2024-04-05T07:57:15.280Z,1009.62
2024-04-05T07:58:15.284Z,1009.59
2024-04-05T07:59:15.299Z,1009.55
2024-04-05T08:00:15.295Z,1009.46
2024-04-05T08:01:15.287Z,1009.45
2024-04-05T08:02:15.297Z,1009.55
2024-04-05T08:03:15.289Z,1009.49
2024-04-05T08:04:15.293Z,1009.52
2024-04-05T08:05:15.296Z,1009.53
2024-04-05T08:06:15.292Z,1009.50
2024-04-05T08:07:15.299Z,1009.59
2024-04-05T08:08:15.303Z,1009.51
2024-04-05T08:09:15.300Z,1009.46
2024-04-05T08:10:15.311Z,1009.48
2024-04-05T08:11:15.332Z,1009.50
2024-04-05T08:12:15.308Z,1009.66
2024-04-05T08:13:15.308Z,1009.57
2024-04-05T08:14:15.304Z,1009.46
2024-04-05T08:15:15.328Z,1009.62
2024-04-05T08:16:15.315Z,1009.85
2024-04-05T08:17:15.308Z,1009.85
2024-04-05T08:18:15.312Z,1009.84
2024-04-05T08:19:15.315Z,1009.53
2024-04-05T08:20:15.309Z,1009.53
2024-04-05T08:21:15.317Z,1009.56
2024-04-05T08:22:15.316Z,1009.54
2024-04-05T08:23:15.328Z,1009.52
2024-04-05T08:24:15.322Z,1009.53
2024-04-05T08:25:15.324Z,1009.44
2024-04-05T08:26:15.317Z,1009.51
2024-04-05T08:27:15.317Z,1009.52
2024-04-05T08:28:15.322Z,1009.54
2024-04-05T08:29:15.321Z,1009.57
2024-04-05T08:30:15.322Z,1009.55
2024-04-05T08:31:15.346Z,1009.47
2024-04-05T08:32:15.327Z,1009.44
2024-04-05T08:33:15.330Z,1009.42
2024-04-05T08:34:15.341Z,1009.44
2024-04-05T08:35:15.327Z,1009.41
2024-04-05T08:36:15.340Z,1009.45
2024-04-05T08:37:15.323Z,1009.42
2024-04-05T08:38:15.321Z,1009.42
2024-04-05T08:39:15.336Z,1009.45
2024-04-05T08:40:15.331Z,1009.52
2024-04-05T08:41:15.323Z,1009.48
2024-04-05T08:42:15.324Z,1009.49
2024-04-05T08:43:15.325Z,1009.50
2024-04-05T08:44:15.328Z,1009.54
2024-04-05T08:45:15.325Z,1009.61
2024-04-05T08:46:15.327Z,1009.57
2024-04-05T08:47:15.411Z,1009.61
2024-04-05T08:48:15.326Z,1009.64
2024-04-05T08:49:15.328Z,1009.71
2024-04-05T08:50:15.332Z,1009.71
2024-04-05T08:51:15.328Z,1009.62
2024-04-05T08:52:15.333Z,1009.65
2024-04-05T08:53:17.853Z,1009.69
2024-04-05T08:54:15.330Z,1009.69
2024-04-05T08:55:15.335Z,1009.75
2024-04-05T08:56:15.329Z,1009.76
2024-04-05T08:57:15.339Z,1009.82
2024-04-05T08:58:15.330Z,1009.93
2024-04-05T08:59:15.331Z,1009.93
2024-04-05T09:00:15.326Z,1009.94
2024-04-05T09:01:15.328Z,1010.25
2024-04-05T09:02:15.340Z,1010.32
2024-04-05T09:03:15.361Z,1010.05
2024-04-05T09:04:15.330Z,1009.99
2024-04-05T09:05:15.330Z,1010.21
2024-04-05T09:06:15.324Z,1010.38
2024-04-05T09:07:15.327Z,1010.44
2024-04-05T09:08:15.338Z,1010.33
2024-04-05T09:09:15.329Z,1010.46
2024-04-05T09:10:15.329Z,1010.52
2024-04-05T09:11:15.329Z,1010.40
2024-04-05T09:12:15.334Z,1010.60
2024-04-05T09:13:15.338Z,1010.61
2024-04-05T09:14:15.331Z,1010.64
2024-04-05T09:15:15.334Z,1010.58
2024-04-05T09:16:15.347Z,1010.60
2024-04-05T09:17:15.339Z,1010.28
2024-04-05T09:18:15.343Z,1010.52
2024-04-05T09:19:15.364Z,1010.57
2024-04-05T09:20:15.353Z,1010.14
2024-04-05T09:21:15.346Z,1010.05
2024-04-05T09:22:15.358Z,1010.28
2024-04-05T09:23:15.360Z,1010.31
2024-04-05T09:24:15.361Z,1010.17
2024-04-05T09:25:15.365Z,1010.16
2024-04-05T09:26:15.362Z,1010.13
2024-04-05T09:27:15.368Z,1010.37
2024-04-05T09:28:15.371Z,1010.31
2024-04-05T09:29:15.378Z,1010.40
2024-04-05T09:30:15.374Z,1010.25
2024-04-05T09:31:15.382Z,1010.22
2024-04-05T09:32:15.385Z,1010.16
2024-04-05T09:33:15.387Z,1010.02
2024-04-05T09:34:15.394Z,1010.01
2024-04-05T09:35:15.401Z,1010.14
2024-04-05T09:36:15.401Z,1010.05
2024-04-05T09:37:15.420Z,1010.04
2024-04-05T09:38:15.408Z,1009.98
2024-04-05T09:39:15.404Z,1009.97
2024-04-05T09:40:15.416Z,1009.94
2024-04-05T09:41:15.448Z,1009.91
2024-04-05T09:42:15.416Z,1009.95
2024-04-05T09:43:15.422Z,1009.91
2024-04-05T09:44:21.431Z,1009.81
2024-04-05T09:45:15.432Z,1009.80
2024-04-05T09:46:15.426Z,1009.71
2024-04-05T09:47:15.428Z,1009.73
2024-04-05T09:48:15.433Z,1009.71
2024-04-05T09:49:15.434Z,1009.73
2024-04-05T09:50:15.434Z,1009.73
2024-04-05T09:51:15.447Z,1009.68
2024-04-05T09:52:15.435Z,1009.66
2024-04-05T09:53:15.442Z,1009.61
2024-04-05T09:54:15.446Z,1009.59
2024-04-05T09:55:15.445Z,1009.62
2024-04-05T09:56:15.446Z,1009.64
2024-04-05T09:57:15.445Z,1009.60
2024-04-05T09:58:15.447Z,1009.62
2024-04-05T09:59:15.449Z,1009.69
2024-04-05T10:00:15.454Z,1009.63
2024-04-05T10:01:15.455Z,1009.68
2024-04-05T10:02:15.453Z,1009.59
2024-04-05T10:03:15.459Z,1009.64
2024-04-05T10:04:15.464Z,1009.65
2024-04-05T10:05:15.517Z,1009.64
2024-04-05T10:06:15.461Z,1009.73
2024-04-05T10:07:15.470Z,1009.67
2024-04-05T10:08:15.453Z,1009.63
2024-04-05T10:09:15.465Z,1009.59
2024-04-05T10:10:15.467Z,1009.50
2024-04-05T10:11:15.537Z,1009.61
2024-04-05T10:12:15.647Z,1009.51
2024-04-05T10:13:15.455Z,1009.53
2024-04-05T10:14:15.470Z,1009.63
2024-04-05T10:15:15.459Z,1009.75
2024-04-05T10:16:15.463Z,1009.94
2024-04-05T10:17:15.465Z,1010.15
2024-04-05T10:18:15.472Z,1010.09
2024-04-05T10:19:15.461Z,1009.90
2024-04-05T10:20:15.500Z,1010.57
2024-04-05T10:21:15.457Z,1010.44
2024-04-05T10:22:15.461Z,1010.55
2024-04-05T10:23:15.486Z,1010.84
2024-04-05T10:24:15.465Z,1010.83
2024-04-05T10:25:15.477Z,1010.94
2024-04-05T10:26:15.469Z,1010.94
2024-04-05T10:27:15.467Z,1010.64
2024-04-05T10:28:15.466Z,1010.68
2024-04-05T10:29:15.467Z,1010.63
2024-04-05T10:30:15.480Z,1010.68
2024-04-05T10:31:15.469Z,1010.93
2024-04-05T10:32:15.476Z,1010.38
2024-04-05T10:33:15.486Z,1010.93
2024-04-05T10:34:15.489Z,1011.05
2024-04-05T10:35:15.537Z,1010.99
2024-04-05T10:36:15.493Z,1011.18
2024-04-05T10:37:15.503Z,1010.98
2024-04-05T10:38:24.174Z,1010.21
2024-04-05T10:39:15.515Z,1011.26
2024-04-05T10:40:15.507Z,1010.99
2024-04-05T10:41:15.512Z,1010.55
2024-04-05T10:42:15.518Z,1010.58
2024-04-05T10:43:15.515Z,1010.48
2024-04-05T10:44:15.528Z,1009.84
2024-04-05T10:45:15.530Z,1009.77
2024-04-05T10:46:15.533Z,1009.83
2024-04-05T10:47:15.566Z,1009.86
2024-04-05T10:48:15.542Z,1009.78
2024-04-05T10:49:15.554Z,1009.74
2024-04-05T10:50:15.557Z,1009.73
2024-04-05T10:51:15.560Z,1010.00
2024-04-05T10:52:15.561Z,1009.82
2024-04-05T10:53:15.569Z,1009.67
2024-04-05T10:54:15.581Z,1010.00
2024-04-05T10:55:15.605Z,1009.79
2024-04-05T10:56:15.588Z,1009.86
2024-04-05T10:57:15.587Z,1009.82
2024-04-05T10:58:15.598Z,1009.75
2024-04-05T10:59:15.594Z,1009.59
2024-04-05T11:00:15.599Z,1009.53
2024-04-05T11:01:15.617Z,1009.57
2024-04-05T11:02:15.626Z,1009.64
2024-04-05T11:03:15.609Z,1009.72
2024-04-05T11:04:15.616Z,1009.85
2024-04-05T11:05:15.677Z,1009.90
2024-04-05T11:06:15.948Z,1009.81
2024-04-05T11:07:15.625Z,1009.66
2024-04-05T11:08:15.627Z,1009.65
2024-04-05T11:09:15.630Z,1009.69
2024-04-05T11:10:26.598Z,1010.11
2024-04-05T11:11:15.663Z,1009.67
2024-04-05T11:12:15.637Z,1010.02
2024-04-05T11:13:15.643Z,1010.23
2024-04-05T11:14:15.645Z,1009.93
2024-04-05T11:15:15.648Z,1009.91
2024-04-05T11:16:15.655Z,1010.18
2024-04-05T11:17:15.661Z,1010.10
2024-04-05T11:18:15.668Z,1010.04
2024-04-05T11:19:15.661Z,1010.16
2024-04-05T11:20:15.670Z,1009.98
2024-04-05T11:21:15.676Z,1009.93
2024-04-05T11:22:15.695Z,1009.59
2024-04-05T11:23:15.683Z,1009.54
2024-04-05T11:24:15.695Z,1009.39
2024-04-05T11:25:15.724Z,1009.77
2024-04-05T11:26:15.702Z,1009.50
2024-04-05T11:27:15.732Z,1009.57
2024-04-05T11:28:15.714Z,1010.10
2024-04-05T11:29:15.728Z,1009.93
2024-04-05T11:30:15.738Z,1009.91
2024-04-05T11:31:15.731Z,1009.40
2024-04-05T11:32:15.731Z,1009.39
2024-04-05T11:33:15.751Z,1009.82
2024-04-05T11:34:15.743Z,1009.86
2024-04-05T11:35:15.752Z,1009.86
2024-04-05T11:36:15.769Z,1009.13
2024-04-05T11:37:15.770Z,1009.52
2024-04-05T11:38:15.790Z,1009.65
2024-04-05T11:39:15.782Z,1009.61
2024-04-05T11:40:25.881Z,1009.46
2024-04-05T11:41:15.789Z,1009.41
2024-04-05T11:42:15.791Z,1008.87
2024-04-05T11:43:15.818Z,1009.05
2024-04-05T11:44:15.823Z,1009.07
2024-04-05T11:45:15.816Z,1008.98
2024-04-05T11:46:15.858Z,1009.09
2024-04-05T11:47:15.840Z,1008.80
2024-04-05T11:48:15.843Z,1008.61
2024-04-05T11:49:15.854Z,1008.58
2024-04-05T11:50:15.851Z,1008.55
2024-04-05T11:51:15.859Z,1008.52
2024-04-05T11:52:15.857Z,1008.52
2024-04-05T11:53:15.878Z,1008.46
2024-04-05T11:54:15.884Z,1008.44
2024-04-05T11:55:15.892Z,1008.53
2024-04-05T11:56:15.879Z,1008.60
2024-04-05T11:57:15.891Z,1008.55
2024-04-05T11:58:15.891Z,1008.46
2024-04-05T11:59:15.916Z,1008.38
2024-04-05T12:00:15.911Z,1008.35
2024-04-05T12:01:15.909Z,1008.66
2024-04-05T12:02:15.916Z,1008.76
2024-04-05T12:03:15.924Z,1008.84
2024-04-05T12:04:15.922Z,1008.89
2024-04-05T12:05:15.935Z,1008.93